< VanCam Weather - WU Station History
^^
Station Historical Data
Daily Summary for April 15, 2018 Units:  English    Metric   Both
« Previous Day
Next Day »
Daily Weekly Monthly Yearly Custom
  High: Low: Average:
Temperature: 50.1 °F 42.2 °F 47.4 °F
Dew Point: 47.8 °F 39.2 °F 45.6 °F
Humidity: 97% 87% 94%
Wind Speed: 13.0mph 0.0mph 2.1mph
Wind Gust: 13.0mph - -
Wind- - SSE
Pressure: 30.01 in 29.53 in -
Precipitation: 0.04 in    
Historical Graphs
 
 
Tabular Data for April 15, 2018
Time Temperature Dew Point Pressure Wind Wind Speed Wind Gust Humidity Rainfall Rate (Hourly) solar Conditions
00:01 47.8 °F 45.9 °F 30.01 in Calm     93% 0.00 in WeatherDisplay:10.37 W/m2 RA
00:06 47.9 °F 46.0 °F 30.01 in NNE 2.3 mph 2.3 mph 93% 0.00 in WeatherDisplay:10.37 W/m2 RA
00:11 47.8 °F 46.2 °F 30.01 in NE 2.3 mph 2.3 mph 94% 0.00 in WeatherDisplay:10.37 W/m2 CLR
00:16 47.8 °F 46.2 °F 30.01 in Calm     94% 0.00 in WeatherDisplay:10.37 W/m2 CLR
00:21 47.7 °F 46.1 °F 30.00 in West 2.0 mph 2.0 mph 94% 0.00 in WeatherDisplay:10.37 W/m2 CLR
00:23 47.7 °F 46.1 °F 30.00 in SW 1.2 mph 1.2 mph 94% 0.00 in WeatherDisplay:10.37 W/m2 CLR
00:28 47.7 °F 46.1 °F 30.00 in ENE 2.3 mph 2.3 mph 94% 0.00 in WeatherDisplay:10.37 W/m2 CLR
00:33 47.7 °F 46.1 °F 30.00 in ENE 1.0 mph 1.0 mph 94% 0.00 in WeatherDisplay:10.37 W/m2 CLR
00:38 47.7 °F 46.1 °F 30.00 in ENE 1.2 mph 1.2 mph 94% 0.00 in WeatherDisplay:10.37 W/m2 CLR
00:43 47.6 °F 46.2 °F 30.00 in ENE 1.2 mph 1.2 mph 95% 0.00 in WeatherDisplay:10.37 W/m2 CLR
00:48 47.7 °F 46.3 °F 30.00 in ENE 1.2 mph 1.2 mph 95% 0.00 in WeatherDisplay:10.37 W/m2 CLR
00:53 47.7 °F 46.3 °F 29.99 in ENE 2.3 mph 2.3 mph 95% 0.00 in WeatherDisplay:10.37 W/m2 CLR
00:58 47.7 °F 46.3 °F 29.99 in ENE 2.3 mph 2.3 mph 95% 0.00 in WeatherDisplay:10.37 W/m2 CLR
01:03 47.8 °F 46.4 °F 29.99 in ENE 2.0 mph 2.0 mph 95% 0.00 in WeatherDisplay:10.37 W/m2 CLR
01:08 47.8 °F 46.4 °F 29.99 in South 2.0 mph 2.0 mph 95% 0.00 in WeatherDisplay:10.37 W/m2 CLR
01:13 47.8 °F 46.4 °F 29.99 in South 1.0 mph 1.0 mph 95% 0.00 in WeatherDisplay:10.37 W/m2 CLR
01:18 47.7 °F 46.3 °F 29.98 in SE 3.5 mph 3.5 mph 95% 0.00 in WeatherDisplay:10.37 W/m2 CLR
01:23 47.7 °F 46.3 °F 29.98 in SSE 1.2 mph 1.2 mph 95% 0.00 in WeatherDisplay:10.37 W/m2 CLR
01:28 47.7 °F 46.3 °F 29.98 in East 2.3 mph 2.3 mph 95% 0.00 in WeatherDisplay:10.37 W/m2 CLR
01:33 47.7 °F 46.3 °F 29.98 in ESE 2.3 mph 2.3 mph 95% 0.00 in WeatherDisplay:10.37 W/m2 CLR
01:38 47.7 °F 46.3 °F 29.98 in ESE 1.2 mph 1.2 mph 95% 0.00 in WeatherDisplay:10.37 W/m2 CLR
01:43 47.6 °F 46.2 °F 29.98 in ESE 1.2 mph 1.2 mph 95% 0.00 in WeatherDisplay:10.37 W/m2 CLR
01:48 47.6 °F 46.2 °F 29.98 in Calm     95% 0.00 in WeatherDisplay:10.37 W/m2 CLR
01:53 47.5 °F 46.1 °F 29.98 in East 2.3 mph 2.3 mph 95% 0.00 in WeatherDisplay:10.37 W/m2 CLR
01:58 47.5 °F 46.1 °F 29.97 in SE 2.3 mph 2.3 mph 95% 0.00 in WeatherDisplay:10.37 W/m2 CLR
02:03 47.5 °F 46.1 °F 29.97 in SE 1.2 mph 1.2 mph 95% 0.01 in WeatherDisplay:10.37 W/m2 RA
02:08 47.4 °F 46.0 °F 29.97 in ESE 2.3 mph 2.3 mph 95% 0.01 in WeatherDisplay:10.37 W/m2 RA
02:13 47.4 °F 46.0 °F 29.97 in SSE 1.2 mph 1.2 mph 95% 0.01 in WeatherDisplay:10.37 W/m2
02:18 47.3 °F 45.9 °F 29.97 in SSE 2.3 mph 2.3 mph 95% 0.01 in WeatherDisplay:10.37 W/m2
02:23 47.3 °F 45.9 °F 29.97 in East 2.3 mph 2.3 mph 95% 0.01 in WeatherDisplay:10.37 W/m2
02:28 47.2 °F 45.8 °F 29.96 in East 1.2 mph 1.2 mph 95% 0.01 in WeatherDisplay:10.37 W/m2
02:33 47.2 °F 45.8 °F 29.96 in East 1.2 mph 1.2 mph 95% 0.01 in WeatherDisplay:10.37 W/m2
02:38 47.2 °F 45.8 °F 29.96 in East 1.2 mph 1.2 mph 95% 0.01 in WeatherDisplay:10.37 W/m2
02:43 47.2 °F 45.8 °F 29.95 in NE 3.5 mph 3.5 mph 95% 0.01 in WeatherDisplay:10.37 W/m2
02:48 47.1 °F 45.7 °F 29.95 in ENE 1.2 mph   95% 0.01 in WeatherDisplay:10.37 W/m2
02:53 47.1 °F 45.7 °F 29.95 in North 1.2 mph   95% 0.01 in WeatherDisplay:10.37 W/m2
02:58 47.1 °F 45.7 °F 29.95 in ESE 2.3 mph 2.3 mph 95% 0.01 in WeatherDisplay:10.37 W/m2
03:03 47.1 °F 45.7 °F 29.95 in North 3.5 mph 3.5 mph 95% 0.00 in WeatherDisplay:10.37 W/m2 CLR
03:08 47.1 °F 45.7 °F 29.95 in ENE 4.6 mph 4.6 mph 95% 0.00 in WeatherDisplay:10.37 W/m2 CLR
03:13 47.1 °F 45.7 °F 29.95 in SSW 2.3 mph 2.3 mph 95% 0.00 in WeatherDisplay:10.37 W/m2 CLR
03:18 47.1 °F 45.7 °F 29.95 in East 3.5 mph 3.5 mph 95% 0.00 in WeatherDisplay:10.37 W/m2 CLR
03:23 47.1 °F 45.7 °F 29.94 in ESE 2.3 mph 2.3 mph 95% 0.00 in WeatherDisplay:10.37 W/m2 CLR
03:29 47.1 °F 45.7 °F 29.95 in East 3.5 mph 3.5 mph 95% 0.00 in WeatherDisplay:10.37 W/m2 CLR
03:34 47.1 °F 45.7 °F 29.94 in ESE 3.5 mph 3.5 mph 95% 0.00 in WeatherDisplay:10.37 W/m2 CLR
03:39 47.1 °F 45.7 °F 29.94 in ESE 2.3 mph 2.3 mph 95% 0.00 in WeatherDisplay:10.37 W/m2 CLR
03:44 47.0 °F 45.6 °F 29.94 in ESE 1.2 mph 1.2 mph 95% 0.00 in WeatherDisplay:10.37 W/m2 CLR
03:49 47.0 °F 45.6 °F 29.95 in ESE 2.3 mph 2.3 mph 95% 0.00 in WeatherDisplay:10.37 W/m2 CLR
03:54 47.0 °F 45.6 °F 29.95 in SE 1.2 mph 1.2 mph 95% 0.00 in WeatherDisplay:10.37 W/m2 CLR
03:59 47.0 °F 45.6 °F 29.94 in SE 1.2 mph 1.2 mph 95% 0.00 in WeatherDisplay:10.37 W/m2 CLR
04:04 47.0 °F 45.6 °F 29.94 in Calm     95% 0.00 in WeatherDisplay:10.37 W/m2 CLR
04:09 47.0 °F 45.6 °F 29.94 in Calm     95% 0.00 in WeatherDisplay:10.37 W/m2 CLR
04:14 47.0 °F 45.6 °F 29.94 in ESE 3.5 mph 3.5 mph 95% 0.00 in WeatherDisplay:10.37 W/m2 CLR
04:19 47.0 °F 45.6 °F 29.94 in SSW 1.2 mph 1.2 mph 95% 0.00 in WeatherDisplay:10.37 W/m2 CLR
04:24 47.0 °F 45.6 °F 29.94 in SSW 1.2 mph 1.2 mph 95% 0.00 in WeatherDisplay:10.37 W/m2 CLR
04:29 46.9 °F 45.5 °F 29.94 in SSE 1.2 mph 1.2 mph 95% 0.00 in WeatherDisplay:10.37 W/m2 CLR
04:34 46.9 °F 45.5 °F 29.94 in Calm     95% 0.00 in WeatherDisplay:10.37 W/m2 CLR
04:39 46.9 °F 45.5 °F 29.94 in SSE 1.2 mph 1.2 mph 95% 0.00 in WeatherDisplay:10.37 W/m2 CLR
04:44 46.9 °F 45.5 °F 29.94 in SSE 1.2 mph 1.2 mph 95% 0.00 in WeatherDisplay:10.37 W/m2 CLR
04:49 46.9 °F 45.5 °F 29.94 in Calm     95% 0.00 in WeatherDisplay:10.37 W/m2 CLR
04:54 46.8 °F 45.4 °F 29.94 in SSE 1.2 mph 1.2 mph 95% 0.00 in WeatherDisplay:10.37 W/m2 CLR
04:59 46.8 °F 45.7 °F 29.93 in SSE 2.3 mph 2.3 mph 96% 0.00 in WeatherDisplay:10.37 W/m2 CLR
05:04 46.8 °F 45.7 °F 29.93 in SSE 2.3 mph 2.3 mph 96% 0.00 in WeatherDisplay:10.37 W/m2 CLR
05:09 46.7 °F 45.6 °F 29.93 in Calm     96% 0.00 in WeatherDisplay:10.37 W/m2 CLR
05:14 46.7 °F 45.6 °F 29.93 in SSE 1.2 mph 1.2 mph 96% 0.00 in WeatherDisplay:10.37 W/m2 CLR
05:19 46.7 °F 45.6 °F 29.93 in Calm     96% 0.00 in WeatherDisplay:10.37 W/m2 CLR
05:24 46.7 °F 45.6 °F 29.92 in Calm     96% 0.00 in WeatherDisplay:10.37 W/m2 CLR
05:29 46.7 °F 45.6 °F 29.92 in Calm     96% 0.00 in WeatherDisplay:10.37 W/m2 CLR
05:34 46.7 °F 45.6 °F 29.92 in Calm     96% 0.00 in WeatherDisplay:10.37 W/m2 CLR
05:39 46.6 °F 45.5 °F 29.92 in Calm     96% 0.00 in WeatherDisplay:10.37 W/m2 CLR
05:44 46.6 °F 45.5 °F 29.92 in Calm     96% 0.00 in WeatherDisplay:10.37 W/m2 CLR
05:49 46.5 °F 45.4 °F 29.92 in Calm     96% 0.00 in WeatherDisplay:10.37 W/m2 CLR
05:54 46.5 °F 45.4 °F 29.91 in Calm     96% 0.00 in WeatherDisplay:10.37 W/m2 CLR
05:59 46.4 °F 45.0 °F 29.91 in Calm     95% 0.00 in WeatherDisplay:10.37 W/m2 CLR
06:04 46.3 °F 44.9 °F 29.91 in Calm     95% 0.00 in WeatherDisplay:10.37 W/m2 CLR
06:09 46.3 °F 45.2 °F 29.91 in Calm     96% 0.00 in WeatherDisplay:10.37 W/m2 CLR
06:14 46.3 °F 45.2 °F 29.91 in Calm     96% 0.00 in WeatherDisplay:10.37 W/m2 CLR
06:19 46.3 °F 45.2 °F 29.91 in Calm     96% 0.00 in WeatherDisplay:10.37 W/m2 CLR
06:24 46.3 °F 45.2 °F 29.90 in Calm     96% 0.00 in WeatherDisplay:10.37 W/m2 CLR
06:29 46.2 °F 45.1 °F 29.90 in Calm     96% 0.00 in WeatherDisplay:10.37 W/m2 CLR
06:34 46.2 °F 45.1 °F 29.90 in Calm     96% 0.00 in WeatherDisplay:10.37 W/m2 CLR
06:39 46.1 °F 45.0 °F 29.90 in Calm     96% 0.00 in WeatherDisplay:10.37 W/m2 CLR
06:44 46.1 °F 45.0 °F 29.90 in Calm     96% 0.00 in WeatherDisplay:10.37 W/m2 CLR
06:49 46.1 °F 45.0 °F 29.90 in Calm     96% 0.00 in WeatherDisplay:10.37 W/m2 CLR
06:54 46.1 °F 45.0 °F 29.90 in Calm     96% 0.00 in WeatherDisplay:10.37 W/m2 CLR
06:59 46.1 °F 45.0 °F 29.89 in Calm     96% 0.00 in WeatherDisplay:10.37 W/m2 CLR
07:04 46.1 °F 45.0 °F 29.89 in Calm     96% 0.00 in WeatherDisplay:10.37 W/m2 CLR
07:09 46.1 °F 45.0 °F 29.89 in Calm     96% 0.00 in WeatherDisplay:10.37 W/m2 CLR
07:14 46.1 °F 45.0 °F 29.89 in Calm     96% 0.00 in WeatherDisplay:10.37 W/m2 CLR
07:19 46.1 °F 45.0 °F 29.89 in Calm     96% 0.00 in WeatherDisplay:10.37 W/m2 CLR
07:24 46.1 °F 45.0 °F 29.89 in SSE 1.2 mph 1.2 mph 96% 0.00 in WeatherDisplay:10.37 W/m2 CLR
07:29 46.1 °F 45.0 °F 29.89 in SSE 2.3 mph 2.3 mph 96% 0.00 in WeatherDisplay:10.37 W/m2 CLR
07:34 46.1 °F 45.0 °F 29.88 in SSE 2.3 mph 2.3 mph 96% 0.00 in WeatherDisplay:10.37 W/m2 CLR
07:39 46.1 °F 45.0 °F 29.88 in SSE 1.2 mph 1.2 mph 96% 0.00 in WeatherDisplay:10.37 W/m2 CLR
07:44 46.2 °F 45.1 °F 29.88 in SSE 1.2 mph 1.2 mph 96% 0.00 in WeatherDisplay:10.37 W/m2 CLR
07:49 46.3 °F 45.2 °F 29.88 in SSE 1.2 mph 1.2 mph 96% 0.00 in WeatherDisplay:10.37 W/m2 CLR
07:54 46.4 °F 45.6 °F 29.87 in Calm     97% 0.00 in WeatherDisplay:10.37 W/m2 CLR
07:59 46.4 °F 45.6 °F 29.87 in East 2.3 mph 2.3 mph 97% 0.00 in WeatherDisplay:10.37 W/m2 CLR
08:04 46.5 °F 45.7 °F 29.87 in East 2.3 mph 2.3 mph 97% 0.00 in WeatherDisplay:10.37 W/m2 CLR
08:09 46.7 °F 45.9 °F 29.86 in East 2.3 mph 2.3 mph 97% 0.00 in WeatherDisplay:10.37 W/m2 CLR
08:14 46.9 °F 45.8 °F 29.86 in East 1.2 mph 1.2 mph 96% 0.00 in WeatherDisplay:10.37 W/m2 CLR
08:19 47.0 °F 45.9 °F 29.86 in East 2.3 mph 2.3 mph 96% 0.00 in WeatherDisplay:10.37 W/m2 CLR
08:24 47.2 °F 46.1 °F 29.86 in East 2.3 mph 2.3 mph 96% 0.00 in WeatherDisplay:10.37 W/m2 CLR
08:29 47.3 °F 46.2 °F 29.85 in East 1.2 mph 1.2 mph 96% 0.00 in WeatherDisplay:10.37 W/m2 CLR
08:34 47.5 °F 46.4 °F 29.85 in East 1.2 mph 1.2 mph 96% 0.00 in WeatherDisplay:10.37 W/m2 CLR
08:39 47.6 °F 46.2 °F 29.85 in East 1.2 mph 1.2 mph 95% 0.00 in WeatherDisplay:10.37 W/m2 CLR
08:44 47.6 °F 46.2 °F 29.85 in Calm     95% 0.00 in WeatherDisplay:10.37 W/m2 CLR
08:49 47.7 °F 46.3 °F 29.85 in Calm     95% 0.00 in WeatherDisplay:10.37 W/m2 CLR
08:54 47.8 °F 46.4 °F 29.84 in Calm     95% 0.00 in WeatherDisplay:10.37 W/m2 CLR
08:59 48.0 °F 46.6 °F 29.84 in Calm     95% 0.00 in WeatherDisplay:10.37 W/m2 CLR
09:04 48.2 °F 46.8 °F 29.84 in East 1.2 mph 1.2 mph 95% 0.00 in WeatherDisplay:10.37 W/m2 CLR
09:09 48.3 °F 46.9 °F 29.84 in East 2.3 mph 2.3 mph 95% 0.00 in WeatherDisplay:10.37 W/m2 CLR
09:14 48.4 °F 46.8 °F 29.83 in East 3.5 mph 3.5 mph 94% 0.00 in WeatherDisplay:10.37 W/m2 CLR
09:19 48.5 °F 46.9 °F 29.83 in East 1.2 mph 1.2 mph 94% 0.01 in WeatherDisplay:10.37 W/m2 RA
09:24 48.6 °F 47.0 °F 29.83 in East 1.2 mph 1.2 mph 94% 0.01 in WeatherDisplay:10.37 W/m2 RA
09:29 48.7 °F 47.1 °F 29.83 in East 2.3 mph 2.3 mph 94% 0.01 in WeatherDisplay:10.37 W/m2
09:34 48.8 °F 46.9 °F 29.82 in East 2.3 mph 2.3 mph 93% 0.01 in WeatherDisplay:10.37 W/m2
09:39 48.9 °F 47.0 °F 29.82 in ENE 2.3 mph 2.3 mph 93% 0.01 in WeatherDisplay:10.37 W/m2
09:44 48.9 °F 46.4 °F 29.82 in ENE 1.2 mph 1.2 mph 91% 0.01 in WeatherDisplay:10.37 W/m2
09:49 49.0 °F 47.1 °F 29.82 in Calm     93% 0.01 in WeatherDisplay:10.37 W/m2
09:54 49.0 °F 47.3 °F 29.81 in Calm     94% 0.01 in WeatherDisplay:10.37 W/m2
09:59 48.9 °F 47.0 °F 29.81 in East 3.5 mph 3.5 mph 93% 0.01 in WeatherDisplay:10.37 W/m2
10:04 48.7 °F 46.8 °F 29.81 in ESE 2.3 mph 2.3 mph 93% 0.01 in WeatherDisplay:10.37 W/m2
10:09 48.5 °F 46.3 °F 29.81 in ESE 1.2 mph 1.2 mph 92% 0.01 in WeatherDisplay:10.37 W/m2
10:14 48.5 °F 46.6 °F 29.81 in ESE 2.3 mph 2.3 mph 93% 0.01 in WeatherDisplay:10.37 W/m2
10:19 48.5 °F 46.9 °F 29.81 in ESE 1.2 mph 1.2 mph 94% 0.00 in WeatherDisplay:10.37 W/m2 CLR
10:24 48.5 °F 46.9 °F 29.81 in ESE 2.3 mph 2.3 mph 94% 0.00 in WeatherDisplay:10.37 W/m2 CLR
10:29 48.4 °F 46.8 °F 29.81 in ESE 2.3 mph 2.3 mph 94% 0.00 in WeatherDisplay:10.37 W/m2 CLR
10:34 48.5 °F 46.9 °F 29.80 in ESE 1.2 mph 1.2 mph 94% 0.00 in WeatherDisplay:10.37 W/m2 CLR
10:39 48.6 °F 47.0 °F 29.80 in ESE 1.2 mph 1.2 mph 94% 0.00 in WeatherDisplay:10.37 W/m2 CLR
10:44 48.7 °F 47.3 °F 29.80 in ESE 1.2 mph 1.2 mph 95% 0.00 in WeatherDisplay:10.37 W/m2 CLR
10:49 48.9 °F 47.2 °F 29.79 in Calm     94% 0.00 in WeatherDisplay:10.37 W/m2 CLR
10:54 49.0 °F 47.3 °F 29.79 in Calm     94% 0.00 in WeatherDisplay:10.37 W/m2 CLR
10:59 49.1 °F 47.4 °F 29.79 in Calm     94% 0.00 in WeatherDisplay:10.37 W/m2 CLR
11:04 49.1 °F 47.4 °F 29.79 in ESE 1.2 mph   94% 0.00 in WeatherDisplay:10.37 W/m2 CLR
11:09 49.1 °F 47.4 °F 29.79 in SSE 2.3 mph 2.3 mph 94% 0.00 in WeatherDisplay:10.37 W/m2 CLR
11:14 49.0 °F 47.1 °F 29.78 in ENE 1.2 mph 1.2 mph 93% 0.00 in WeatherDisplay:10.37 W/m2 CLR
11:19 49.0 °F 46.8 °F 29.78 in ESE 2.3 mph 2.3 mph 92% 0.00 in WeatherDisplay:10.37 W/m2 CLR
11:24 49.0 °F 47.1 °F 29.78 in ESE 2.3 mph 2.3 mph 93% 0.00 in WeatherDisplay:10.37 W/m2 CLR
11:29 49.1 °F 47.4 °F 29.77 in ESE 1.2 mph 1.2 mph 94% 0.00 in WeatherDisplay:10.37 W/m2 CLR
11:34 49.2 °F 47.5 °F 29.77 in Calm   0.2 mph 94% 0.00 in WeatherDisplay:10.37 W/m2 CLR
11:39 49.5 °F 47.8 °F 29.77 in ESE 1.2 mph 1.2 mph 94% 0.00 in WeatherDisplay:10.37 W/m2 CLR
11:44 49.6 °F 47.1 °F 29.76 in ENE 3.5 mph 3.5 mph 91% 0.00 in WeatherDisplay:10.37 W/m2 CLR
11:49 49.7 °F 47.2 °F 29.76 in ENE 1.2 mph 1.2 mph 91% 0.00 in WeatherDisplay:10.37 W/m2 CLR
11:54 49.9 °F 46.8 °F 29.76 in ENE 1.2 mph 1.2 mph 89% 0.00 in WeatherDisplay:10.37 W/m2 CLR
11:59 50.1 °F 47.3 °F 29.75 in ENE 2.0 mph 2.0 mph 90% 0.00 in WeatherDisplay:10.37 W/m2 CLR
12:04 50.1 °F 47.0 °F 29.75 in NNE 2.3 mph 2.3 mph 89% 0.00 in WeatherDisplay:10.37 W/m2 CLR
12:09 49.9 °F 46.5 °F 29.75 in North 2.3 mph   88% 0.00 in WeatherDisplay:10.37 W/m2 CLR
12:14 49.7 °F 46.6 °F 29.75 in Calm     89% 0.00 in WeatherDisplay:10.37 W/m2 CLR
12:19 49.6 °F 46.5 °F 29.74 in Calm     89% 0.00 in WeatherDisplay:10.37 W/m2 CLR
12:24 49.5 °F 46.1 °F 29.74 in SW 2.3 mph 2.3 mph 88% 0.00 in WeatherDisplay:10.37 W/m2 CLR
12:29 49.5 °F 45.8 °F 29.74 in SW 1.2 mph   87% 0.00 in WeatherDisplay:10.37 W/m2 CLR
12:34 49.6 °F 46.8 °F 29.74 in SW 1.2 mph 1.2 mph 90% 0.00 in WeatherDisplay:10.37 W/m2 CLR
12:39 49.6 °F 46.8 °F 29.73 in SW 3.5 mph 3.5 mph 90% 0.00 in WeatherDisplay:10.37 W/m2 CLR
12:44 49.7 °F 47.5 °F 29.73 in SW 1.0 mph 1.0 mph 92% 0.00 in WeatherDisplay:10.37 W/m2 CLR
12:49 49.7 °F 47.2 °F 29.73 in SW 2.3 mph 2.3 mph 91% 0.00 in WeatherDisplay:10.37 W/m2 CLR
12:54 49.6 °F 47.1 °F 29.73 in Calm     91% 0.00 in WeatherDisplay:10.37 W/m2 CLR
12:59 49.6 °F 47.4 °F 29.73 in SW 2.3 mph 2.3 mph 92% 0.00 in WeatherDisplay:10.37 W/m2 CLR
13:04 49.4 °F 46.9 °F 29.72 in WNW 2.3 mph 2.3 mph 91% 0.00 in WeatherDisplay:10.37 W/m2 CLR
13:09 49.3 °F 47.1 °F 29.72 in West 1.2 mph 1.2 mph 92% 0.00 in WeatherDisplay:10.37 W/m2 CLR
13:14 49.3 °F 47.1 °F 29.71 in SSW 3.5 mph 3.5 mph 92% 0.00 in WeatherDisplay:10.37 W/m2 CLR
13:19 49.2 °F 47.3 °F 29.71 in South 2.3 mph 2.3 mph 93% 0.00 in WeatherDisplay:10.37 W/m2 CLR
13:24 49.3 °F 47.6 °F 29.70 in Calm     94% 0.00 in WeatherDisplay:10.37 W/m2 CLR
13:29 49.3 °F 47.4 °F 29.70 in SW 2.3 mph 2.3 mph 93% 0.00 in WeatherDisplay:10.37 W/m2 CLR
13:34 49.4 °F 47.5 °F 29.70 in SSW 3.5 mph 3.5 mph 93% 0.00 in WeatherDisplay:10.37 W/m2 CLR
13:39 49.1 °F 46.9 °F 29.70 in NW 1.2 mph 1.2 mph 92% 0.00 in WeatherDisplay:10.37 W/m2 CLR
13:44 48.9 °F 46.7 °F 29.70 in WSW 1.2 mph 1.2 mph 92% 0.00 in WeatherDisplay:10.37 W/m2 CLR
13:49 48.7 °F 46.5 °F 29.69 in SSW 2.3 mph 2.3 mph 92% 0.00 in WeatherDisplay:10.37 W/m2 CLR
13:54 48.6 °F 46.4 °F 29.69 in SW 3.5 mph 3.5 mph 92% 0.00 in WeatherDisplay:10.37 W/m2 CLR
13:59 48.7 °F 46.5 °F 29.69 in WNW 3.5 mph 3.5 mph 92% 0.00 in WeatherDisplay:10.37 W/m2 CLR
14:04 48.9 °F 47.0 °F 29.69 in West 2.0 mph 2.0 mph 93% 0.00 in WeatherDisplay:10.37 W/m2 CLR
14:09 49.1 °F 47.4 °F 29.68 in West 2.3 mph 2.3 mph 94% 0.00 in WeatherDisplay:10.37 W/m2 CLR
14:14 49.0 °F 47.1 °F 29.68 in SSW 2.3 mph 2.3 mph 93% 0.00 in WeatherDisplay:10.37 W/m2 CLR
14:19 48.8 °F 46.9 °F 29.68 in SSW 3.5 mph 3.5 mph 93% 0.00 in WeatherDisplay:10.37 W/m2 CLR
14:24 48.8 °F 47.2 °F 29.68 in SSW 5.0 mph 5.0 mph 94% 0.00 in WeatherDisplay:10.37 W/m2 CLR
14:29 48.8 °F 47.2 °F 29.67 in NW 1.2 mph 1.2 mph 94% 0.00 in WeatherDisplay:10.37 W/m2 CLR
14:34 48.8 °F 47.2 °F 29.67 in NW 2.3 mph 2.3 mph 94% 0.00 in WeatherDisplay:10.37 W/m2 CLR
14:39 48.7 °F 46.8 °F 29.67 in SSE 2.3 mph 2.3 mph 93% 0.00 in WeatherDisplay:10.37 W/m2 CLR
14:44 48.6 °F 46.7 °F 29.67 in West 2.3 mph 2.3 mph 93% 0.00 in WeatherDisplay:10.37 W/m2 CLR
14:49 48.6 °F 46.7 °F 29.66 in West 1.2 mph 1.2 mph 93% 0.01 in WeatherDisplay:10.37 W/m2 RA
14:54 48.6 °F 46.7 °F 29.66 in West 2.3 mph 2.3 mph 93% 0.01 in WeatherDisplay:10.37 W/m2 RA
14:59 48.5 °F 46.6 °F 29.66 in West 2.3 mph 2.3 mph 93% 0.01 in WeatherDisplay:10.37 W/m2
15:04 48.3 °F 46.1 °F 29.66 in NW 3.5 mph 3.5 mph 92% 0.01 in WeatherDisplay:10.37 W/m2
15:09 48.2 °F 46.3 °F 29.65 in SSW 2.3 mph 2.3 mph 93% 0.01 in WeatherDisplay:10.37 W/m2
15:14 48.1 °F 46.2 °F 29.65 in SW 2.3 mph 2.3 mph 93% 0.01 in WeatherDisplay:10.37 W/m2
15:19 48.2 °F 46.6 °F 29.65 in SW 1.2 mph 1.2 mph 94% 0.01 in WeatherDisplay:10.37 W/m2
15:24 48.2 °F 46.3 °F 29.64 in Calm     93% 0.01 in WeatherDisplay:10.37 W/m2
15:29 48.3 °F 46.4 °F 29.64 in SW 1.2 mph   93% 0.01 in WeatherDisplay:10.37 W/m2
15:34 48.4 °F 46.8 °F 29.64 in Calm     94% 0.01 in WeatherDisplay:10.37 W/m2
15:39 48.4 °F 46.5 °F 29.64 in Calm     93% 0.01 in WeatherDisplay:10.37 W/m2
15:44 48.4 °F 46.5 °F 29.64 in Calm     93% 0.01 in WeatherDisplay:10.37 W/m2
15:49 48.5 °F 46.6 °F 29.63 in Calm     93% 0.00 in WeatherDisplay:10.37 W/m2
15:54 48.5 °F 46.6 °F 29.63 in Calm     93% 0.00 in WeatherDisplay:10.37 W/m2 CLR
15:59 48.5 °F 46.6 °F 29.63 in Calm     93% 0.00 in WeatherDisplay:10.37 W/m2 CLR
16:04 48.6 °F 46.7 °F 29.63 in Calm     93% 0.00 in WeatherDisplay:10.37 W/m2 CLR
16:09 48.6 °F 46.7 °F 29.62 in North 2.3 mph 2.3 mph 93% 0.00 in WeatherDisplay:10.37 W/m2 CLR
16:14 48.6 °F 46.7 °F 29.62 in North 2.3 mph 2.3 mph 93% 0.00 in WeatherDisplay:10.37 W/m2 CLR
16:19 48.5 °F 46.6 °F 29.62 in North 2.3 mph 2.3 mph 93% 0.00 in WeatherDisplay:10.37 W/m2 CLR
16:24 48.6 °F 47.0 °F 29.62 in North 1.2 mph 1.2 mph 94% 0.00 in WeatherDisplay:10.37 W/m2 CLR
16:29 48.7 °F 47.1 °F 29.62 in Calm     94% 0.00 in WeatherDisplay:10.37 W/m2 CLR
16:34 48.7 °F 46.8 °F 29.61 in Calm     93% 0.00 in WeatherDisplay:10.37 W/m2 CLR
16:39 48.8 °F 46.9 °F 29.61 in North 2.0 mph 2.0 mph 93% 0.00 in WeatherDisplay:10.37 W/m2 CLR
16:44 48.7 °F 46.5 °F 29.61 in Calm     92% 0.00 in WeatherDisplay:10.37 W/m2 CLR
16:49 48.7 °F 46.8 °F 29.61 in Calm     93% 0.00 in WeatherDisplay:10.37 W/m2 CLR
16:54 48.7 °F 46.8 °F 29.60 in Calm     93% 0.00 in WeatherDisplay:10.37 W/m2 CLR
16:59 48.6 °F 47.0 °F 29.60 in Calm     94% 0.00 in WeatherDisplay:10.37 W/m2 CLR
17:04 48.5 °F 46.9 °F 29.60 in Calm     94% 0.00 in WeatherDisplay:10.37 W/m2 CLR
17:09 48.4 °F 46.8 °F 29.59 in NNE 4.0 mph 4.0 mph 94% 0.00 in WeatherDisplay:10.37 W/m2 CLR
17:14 48.2 °F 46.6 °F 29.59 in NNE 1.2 mph 1.2 mph 94% 0.00 in WeatherDisplay:10.37 W/m2 CLR
17:19 48.1 °F 46.7 °F 29.58 in NNE 2.3 mph 2.3 mph 95% 0.00 in WeatherDisplay:10.37 W/m2 CLR
17:24 48.1 °F 46.7 °F 29.58 in NNE 1.2 mph   95% 0.00 in WeatherDisplay:10.37 W/m2 CLR
17:29 48.1 °F 46.7 °F 29.57 in NNE 1.2 mph 1.2 mph 95% 0.00 in WeatherDisplay:10.37 W/m2 CLR
17:34 48.2 °F 46.8 °F 29.57 in NNE 1.2 mph 1.2 mph 95% 0.00 in WeatherDisplay:10.37 W/m2 CLR
17:39 48.2 °F 46.8 °F 29.57 in NNE 1.2 mph 1.2 mph 95% 0.00 in WeatherDisplay:10.37 W/m2 CLR
17:44 48.2 °F 46.8 °F 29.57 in WNW 1.0 mph 1.0 mph 95% 0.00 in WeatherDisplay:10.37 W/m2 CLR
17:49 48.1 °F 46.7 °F 29.56 in WNW 1.2 mph 1.2 mph 95% 0.00 in WeatherDisplay:10.37 W/m2 CLR
17:54 48.2 °F 46.8 °F 29.56 in WNW 2.3 mph 2.3 mph 95% 0.00 in WeatherDisplay:10.37 W/m2 CLR
17:59 48.4 °F 47.3 °F 29.56 in West 2.0 mph 2.0 mph 96% 0.00 in WeatherDisplay:10.37 W/m2 CLR
18:04 48.4 °F 47.3 °F 29.56 in West 1.2 mph 1.2 mph 96% 0.00 in WeatherDisplay:10.37 W/m2 CLR
18:09 48.3 °F 47.2 °F 29.56 in West 2.3 mph 2.3 mph 96% 0.00 in WeatherDisplay:10.37 W/m2 CLR
18:14 48.3 °F 46.9 °F 29.55 in South 2.3 mph 2.3 mph 95% 0.00 in WeatherDisplay:10.37 W/m2 CLR
18:19 48.2 °F 46.8 °F 29.55 in SW 2.3 mph 2.3 mph 95% 0.00 in WeatherDisplay:10.37 W/m2 CLR
18:24 48.2 °F 46.8 °F 29.55 in SW 3.5 mph 3.5 mph 95% 0.00 in WeatherDisplay:10.37 W/m2 CLR
18:29 48.1 °F 46.7 °F 29.55 in SW 1.2 mph 1.2 mph 95% 0.00 in WeatherDisplay:10.37 W/m2 CLR
18:34 48.1 °F 46.7 °F 29.55 in SW 2.3 mph 2.3 mph 95% 0.00 in WeatherDisplay:10.37 W/m2 CLR
18:39 48.0 °F 46.6 °F 29.55 in SW 1.2 mph 1.2 mph 95% 0.00 in WeatherDisplay:10.37 W/m2 CLR
18:44 48.0 °F 46.6 °F 29.54 in SW 2.0 mph 2.0 mph 95% 0.00 in WeatherDisplay:10.37 W/m2 CLR
18:49 48.0 °F 46.9 °F 29.54 in NNW 1.2 mph 1.2 mph 96% 0.00 in WeatherDisplay:10.37 W/m2 CLR
18:54 47.9 °F 46.8 °F 29.55 in NNW 1.2 mph   96% 0.00 in WeatherDisplay:10.37 W/m2 CLR
18:59 47.9 °F 46.8 °F 29.54 in NNW 1.2 mph 1.2 mph 96% 0.00 in WeatherDisplay:10.37 W/m2 CLR
19:04 47.9 °F 46.8 °F 29.54 in NNW 1.2 mph 1.2 mph 96% 0.00 in WeatherDisplay:10.37 W/m2 CLR
19:09 47.9 °F 46.8 °F 29.54 in South 3.5 mph 3.5 mph 96% 0.00 in WeatherDisplay:10.37 W/m2 CLR
19:14 47.8 °F 46.7 °F 29.54 in South 2.3 mph 2.3 mph 96% 0.00 in WeatherDisplay:10.37 W/m2 CLR
19:19 47.8 °F 46.4 °F 29.54 in Calm     95% 0.00 in WeatherDisplay:10.37 W/m2 CLR
19:24 47.7 °F 46.3 °F 29.54 in Calm     95% 0.00 in WeatherDisplay:10.37 W/m2 CLR
19:29 47.6 °F 46.5 °F 29.53 in Calm     96% 0.00 in WeatherDisplay:10.37 W/m2 CLR
19:34 47.6 °F 46.2 °F 29.53 in Calm     95% 0.00 in WeatherDisplay:10.37 W/m2 CLR
19:39 47.5 °F 46.1 °F 29.53 in Calm     95% 0.00 in WeatherDisplay:10.37 W/m2 CLR
19:44 47.4 °F 46.3 °F 29.53 in Calm     96% 0.00 in WeatherDisplay:10.37 W/m2 CLR
19:49 47.4 °F 46.3 °F 29.54 in South 3.5 mph 3.5 mph 96% 0.00 in WeatherDisplay:10.37 W/m2 CLR
19:54 47.3 °F 46.2 °F 29.54 in SSW 2.0 mph 2.0 mph 96% 0.00 in WeatherDisplay:10.37 W/m2 CLR
19:59 47.3 °F 46.2 °F 29.55 in SSW 3.5 mph 3.5 mph 96% 0.00 in WeatherDisplay:10.37 W/m2 CLR
20:04 47.2 °F 46.1 °F 29.54 in NNE 2.3 mph 2.3 mph 96% 0.00 in WeatherDisplay:10.37 W/m2 CLR
20:09 47.1 °F 46.0 °F 29.55 in SSE 2.3 mph 2.3 mph 96% 0.00 in WeatherDisplay:10.37 W/m2 CLR
20:14 47.1 °F 46.0 °F 29.55 in South 2.3 mph 2.3 mph 96% 0.00 in WeatherDisplay:10.37 W/m2 CLR
20:19 47.1 °F 46.0 °F 29.55 in East 3.0 mph 3.0 mph 96% 0.00 in WeatherDisplay:10.37 W/m2 CLR
20:24 47.1 °F 46.0 °F 29.56 in ESE 3.5 mph 3.5 mph 96% 0.00 in WeatherDisplay:10.37 W/m2 CLR
20:29 47.1 °F 46.0 °F 29.56 in ESE 3.5 mph 3.5 mph 96% 0.00 in WeatherDisplay:10.37 W/m2 CLR
20:34 47.2 °F 46.1 °F 29.57 in SSW 3.5 mph 3.5 mph 96% 0.00 in WeatherDisplay:10.37 W/m2 CLR
20:39 47.2 °F 45.8 °F 29.57 in SW 11.0 mph 11.0 mph 95% 0.00 in WeatherDisplay:10.37 W/m2 CLR
20:44 47.1 °F 45.2 °F 29.58 in SE 5.8 mph 5.8 mph 93% 0.00 in WeatherDisplay:10.37 W/m2 CLR
20:49 46.8 °F 44.6 °F 29.58 in WSW 4.0 mph 4.0 mph 92% 0.00 in WeatherDisplay:10.37 W/m2 CLR
20:54 46.6 °F 44.1 °F 29.58 in ESE 3.0 mph 3.0 mph 91% 0.00 in WeatherDisplay:10.37 W/m2 CLR
20:59 46.3 °F 43.8 °F 29.58 in ESE 4.6 mph 4.6 mph 91% 0.00 in WeatherDisplay:10.37 W/m2 CLR
21:04 46.2 °F 43.7 °F 29.58 in SSE 3.5 mph 3.5 mph 91% 0.01 in WeatherDisplay:10.37 W/m2 RA
21:09 46.0 °F 43.5 °F 29.59 in ESE 3.5 mph 3.5 mph 91% 0.01 in WeatherDisplay:10.37 W/m2 RA
21:14 45.8 °F 43.3 °F 29.59 in SSW 8.1 mph 8.1 mph 91% 0.01 in WeatherDisplay:10.37 W/m2
21:19 45.7 °F 42.9 °F 29.59 in WSW 10.0 mph 10.0 mph 90% 0.01 in WeatherDisplay:10.37 W/m2
21:24 45.6 °F 42.5 °F 29.59 in SE 9.2 mph 9.2 mph 89% 0.01 in WeatherDisplay:10.37 W/m2
21:29 45.5 °F 42.7 °F 29.60 in West 9.2 mph 9.2 mph 90% 0.01 in WeatherDisplay:10.37 W/m2
21:34 45.3 °F 42.0 °F 29.60 in SSW 10.4 mph 10.4 mph 88% 0.01 in WeatherDisplay:10.37 W/m2
21:39 45.2 °F 41.9 °F 29.60 in SW 6.9 mph 6.9 mph 88% 0.01 in WeatherDisplay:10.37 W/m2
21:44 45.0 °F 41.7 °F 29.60 in SE 5.8 mph 5.8 mph 88% 0.01 in WeatherDisplay:10.37 W/m2
21:49 44.8 °F 41.8 °F 29.61 in SW 2.3 mph 2.3 mph 89% 0.01 in WeatherDisplay:10.37 W/m2
21:54 44.7 °F 41.7 °F 29.61 in ENE 3.5 mph 3.5 mph 89% 0.01 in WeatherDisplay:10.37 W/m2
21:59 44.6 °F 41.3 °F 29.61 in WSW 4.6 mph 7.1 mph 88% 0.01 in WeatherDisplay:10.37 W/m2
22:04 44.7 °F 41.4 °F 29.61 in WSW 4.6 mph 4.6 mph 88% 0.00 in WeatherDisplay:10.37 W/m2 CLR
22:09 44.5 °F 41.5 °F 29.61 in NW 3.5 mph 3.5 mph 89% 0.00 in WeatherDisplay:10.37 W/m2 CLR
22:14 44.2 °F 40.9 °F 29.61 in SSW 8.1 mph 8.1 mph 88% 0.00 in WeatherDisplay:10.37 W/m2 CLR
22:20 44.0 °F 41.0 °F 29.61 in SSE 9.0 mph 9.0 mph 89% 0.00 in WeatherDisplay:10.37 W/m2 CLR
22:25 43.8 °F 40.5 °F 29.61 in SSW 13.0 mph 13.0 mph 88% 0.00 in WeatherDisplay:10.37 W/m2 CLR
22:30 43.7 °F 40.7 °F 29.61 in ENE 4.6 mph 4.6 mph 89% 0.00 in WeatherDisplay:10.37 W/m2 CLR
22:35 43.6 °F 40.6 °F 29.61 in South 2.0 mph 9.0 mph 89% 0.00 in WeatherDisplay:10.37 W/m2 CLR
22:40 43.5 °F 40.5 °F 29.61 in North 4.6 mph 4.6 mph 89% 0.00 in WeatherDisplay:10.37 W/m2 CLR
22:45 43.4 °F 40.4 °F 29.62 in WSW 9.2 mph 9.2 mph 89% 0.00 in WeatherDisplay:10.37 W/m2 CLR
22:50 43.3 °F 40.0 °F 29.62 in SSW 10.4 mph 10.4 mph 88% 0.00 in WeatherDisplay:10.37 W/m2 CLR
22:55 43.2 °F 40.2 °F 29.62 in NNE 3.0 mph 7.0 mph 89% 0.00 in WeatherDisplay:10.37 W/m2 CLR
23:00 43.1 °F 40.1 °F 29.63 in SSE 2.0 mph 12.0 mph 89% 0.00 in WeatherDisplay:10.37 W/m2 CLR
23:05 43.0 °F 40.0 °F 29.63 in NNW 6.9 mph 6.9 mph 89% 0.00 in WeatherDisplay:10.37 W/m2 CLR
23:10 42.9 °F 39.9 °F 29.63 in ESE 6.9 mph 6.9 mph 89% 0.00 in WeatherDisplay:10.37 W/m2 CLR
23:15 42.7 °F 39.7 °F 29.63 in South 2.0 mph 7.0 mph 89% 0.00 in WeatherDisplay:10.37 W/m2 CLR
23:20 42.6 °F 39.9 °F 29.63 in WSW 6.0 mph 10.0 mph 90% 0.00 in WeatherDisplay:10.37 W/m2 CLR
23:25 42.4 °F 39.7 °F 29.64 in WSW 7.0 mph 7.0 mph 90% 0.00 in WeatherDisplay:10.37 W/m2 CLR
23:30 42.3 °F 39.6 °F 29.64 in SW 3.5 mph 3.5 mph 90% 0.00 in WeatherDisplay:10.37 W/m2 CLR
23:35 42.2 °F 39.5 °F 29.64 in NE 3.5 mph 3.7 mph 90% 0.00 in WeatherDisplay:10.37 W/m2 CLR
23:40 42.2 °F 39.5 °F 29.64 in SSW 9.2 mph 9.2 mph 90% 0.00 in WeatherDisplay:10.37 W/m2 CLR
23:45 42.2 °F 39.5 °F 29.64 in SSE 1.0 mph 8.0 mph 90% 0.00 in WeatherDisplay:10.37 W/m2 CLR
23:50 42.2 °F 39.5 °F 29.64 in South 2.0 mph 8.0 mph 90% 0.00 in WeatherDisplay:10.37 W/m2 CLR
23:55 42.2 °F 39.2 °F 29.64 in SSE 1.0 mph 9.0 mph 89% 0.00 in WeatherDisplay:10.37 W/m2 CLR
VanCam Weather
Compliments of Weather Underground - 4 mb